sensor_id;sensor_type;location;lat;lon;timestamp;P1;durP1;ratioP1;P2;durP2;ratioP2
70078;SDS011;57451;52.496;13.456;2023-02-28T00:00:12;7.73;;;2.33;;
70078;SDS011;57451;52.496;13.456;2023-02-28T00:02:42;6.82;;;2.17;;
70078;SDS011;57451;52.496;13.456;2023-02-28T00:05:11;5.38;;;2.03;;
70078;SDS011;57451;52.496;13.456;2023-02-28T00:07:39;6.85;;;2.25;;
70078;SDS011;57451;52.496;13.456;2023-02-28T00:10:07;4.85;;;1.80;;
70078;SDS011;57451;52.496;13.456;2023-02-28T00:12:36;6.73;;;2.10;;
70078;SDS011;57451;52.496;13.456;2023-02-28T00:15:05;5.32;;;2.38;;
70078;SDS011;57451;52.496;13.456;2023-02-28T00:17:33;8.23;;;1.90;;
70078;SDS011;57451;52.496;13.456;2023-02-28T00:20:02;6.50;;;2.30;;
70078;SDS011;57451;52.496;13.456;2023-02-28T00:22:38;7.28;;;2.40;;
70078;SDS011;57451;52.496;13.456;2023-02-28T00:25:07;8.00;;;2.57;;
70078;SDS011;57451;52.496;13.456;2023-02-28T00:27:36;6.65;;;2.40;;
70078;SDS011;57451;52.496;13.456;2023-02-28T00:30:04;6.88;;;2.65;;
70078;SDS011;57451;52.496;13.456;2023-02-28T00:32:34;7.28;;;2.60;;
70078;SDS011;57451;52.496;13.456;2023-02-28T00:35:03;8.20;;;2.80;;
70078;SDS011;57451;52.496;13.456;2023-02-28T00:37:31;6.10;;;2.43;;
70078;SDS011;57451;52.496;13.456;2023-02-28T00:39:59;7.93;;;2.80;;
70078;SDS011;57451;52.496;13.456;2023-02-28T00:42:26;5.43;;;2.40;;
70078;SDS011;57451;52.496;13.456;2023-02-28T00:44:54;7.18;;;2.75;;
70078;SDS011;57451;52.496;13.456;2023-02-28T00:47:21;7.22;;;2.53;;
70078;SDS011;57451;52.496;13.456;2023-02-28T00:49:48;7.00;;;2.90;;
70078;SDS011;57451;52.496;13.456;2023-02-28T00:52:17;6.35;;;2.72;;
70078;SDS011;57451;52.496;13.456;2023-02-28T00:54:44;6.25;;;2.72;;
70078;SDS011;57451;52.496;13.456;2023-02-28T00:57:14;6.97;;;2.90;;
70078;SDS011;57451;52.496;13.456;2023-02-28T00:59:41;6.32;;;2.80;;
70078;SDS011;57451;52.496;13.456;2023-02-28T01:02:08;8.57;;;2.97;;
70078;SDS011;57451;52.496;13.456;2023-02-28T01:04:36;6.13;;;2.53;;
70078;SDS011;57451;52.496;13.456;2023-02-28T01:07:03;7.50;;;2.80;;
70078;SDS011;57451;52.496;13.456;2023-02-28T01:09:32;6.78;;;3.13;;
70078;SDS011;57451;52.496;13.456;2023-02-28T01:11:59;7.38;;;2.92;;
70078;SDS011;57451;52.496;13.456;2023-02-28T01:14:26;8.23;;;2.90;;
70078;SDS011;57451;52.496;13.456;2023-02-28T01:16:53;8.93;;;3.03;;
70078;SDS011;57451;52.496;13.456;2023-02-28T01:19:21;6.75;;;2.50;;
70078;SDS011;57451;52.496;13.456;2023-02-28T01:21:48;6.72;;;2.50;;
70078;SDS011;57451;52.496;13.456;2023-02-28T01:24:15;6.40;;;2.97;;
70078;SDS011;57451;52.496;13.456;2023-02-28T01:26:45;7.43;;;2.83;;
70078;SDS011;57451;52.496;13.456;2023-02-28T01:29:12;7.50;;;3.17;;
70078;SDS011;57451;52.496;13.456;2023-02-28T01:31:39;7.90;;;2.97;;
70078;SDS011;57451;52.496;13.456;2023-02-28T01:34:07;7.68;;;3.00;;
70078;SDS011;57451;52.496;13.456;2023-02-28T01:36:34;7.60;;;3.00;;
70078;SDS011;57451;52.496;13.456;2023-02-28T01:39:02;8.37;;;3.07;;
70078;SDS011;57451;52.496;13.456;2023-02-28T01:41:31;7.93;;;3.30;;
70078;SDS011;57451;52.496;13.456;2023-02-28T01:44:03;9.65;;;3.60;;
70078;SDS011;57451;52.496;13.456;2023-02-28T01:46:32;7.07;;;3.35;;
70078;SDS011;57451;52.496;13.456;2023-02-28T01:49:03;8.25;;;3.20;;
70078;SDS011;57451;52.496;13.456;2023-02-28T01:51:34;5.97;;;3.20;;
70078;SDS011;57451;52.496;13.456;2023-02-28T01:54:07;6.90;;;3.33;;
70078;SDS011;57451;52.496;13.456;2023-02-28T01:56:41;7.22;;;2.85;;
70078;SDS011;57451;52.496;13.456;2023-02-28T01:59:15;9.82;;;3.25;;
70078;SDS011;57451;52.496;13.456;2023-02-28T02:01:48;9.20;;;3.15;;
70078;SDS011;57451;52.496;13.456;2023-02-28T02:04:18;6.67;;;3.33;;
70078;SDS011;57451;52.496;13.456;2023-02-28T02:06:48;6.80;;;3.15;;
70078;SDS011;57451;52.496;13.456;2023-02-28T02:09:16;7.88;;;3.17;;
70078;SDS011;57451;52.496;13.456;2023-02-28T02:11:43;7.47;;;3.22;;
70078;SDS011;57451;52.496;13.456;2023-02-28T02:14:30;9.07;;;3.33;;
70078;SDS011;57451;52.496;13.456;2023-02-28T02:17:11;8.63;;;3.13;;
70078;SDS011;57451;52.496;13.456;2023-02-28T02:19:54;8.05;;;3.20;;
70078;SDS011;57451;52.496;13.456;2023-02-28T02:25:34;8.25;;;3.03;;
70078;SDS011;57451;52.496;13.456;2023-02-28T02:28:15;7.83;;;3.07;;
70078;SDS011;57451;52.496;13.456;2023-02-28T02:31:08;9.10;;;4.07;;
70078;SDS011;57451;52.496;13.456;2023-02-28T02:36:53;8.75;;;3.20;;
70078;SDS011;57451;52.496;13.456;2023-02-28T02:39:31;9.27;;;3.53;;
70078;SDS011;57451;52.496;13.456;2023-02-28T02:42:09;8.97;;;3.40;;
70078;SDS011;57451;52.496;13.456;2023-02-28T02:44:40;8.45;;;3.65;;
70078;SDS011;57451;52.496;13.456;2023-02-28T02:47:12;8.50;;;3.55;;
70078;SDS011;57451;52.496;13.456;2023-02-28T02:49:45;11.68;;;3.80;;
70078;SDS011;57451;52.496;13.456;2023-02-28T02:52:16;6.83;;;3.30;;
70078;SDS011;57451;52.496;13.456;2023-02-28T02:54:48;9.45;;;3.58;;
70078;SDS011;57451;52.496;13.456;2023-02-28T02:57:23;8.10;;;3.35;;
70078;SDS011;57451;52.496;13.456;2023-02-28T02:59:54;7.28;;;3.20;;
70078;SDS011;57451;52.496;13.456;2023-02-28T03:02:23;8.10;;;3.90;;
70078;SDS011;57451;52.496;13.456;2023-02-28T03:04:56;7.82;;;3.33;;
70078;SDS011;57451;52.496;13.456;2023-02-28T03:07:27;9.82;;;3.58;;
70078;SDS011;57451;52.496;13.456;2023-02-28T03:09:55;8.40;;;3.78;;
70078;SDS011;57451;52.496;13.456;2023-02-28T03:12:23;10.50;;;3.42;;
70078;SDS011;57451;52.496;13.456;2023-02-28T03:15:02;7.23;;;3.07;;
70078;SDS011;57451;52.496;13.456;2023-02-28T03:17:42;7.38;;;3.55;;
70078;SDS011;57451;52.496;13.456;2023-02-28T03:20:19;8.80;;;3.38;;
70078;SDS011;57451;52.496;13.456;2023-02-28T03:22:59;8.52;;;3.88;;
70078;SDS011;57451;52.496;13.456;2023-02-28T03:25:37;7.27;;;3.37;;
70078;SDS011;57451;52.496;13.456;2023-02-28T03:28:13;8.48;;;3.72;;
70078;SDS011;57451;52.496;13.456;2023-02-28T03:30:45;7.57;;;3.40;;
70078;SDS011;57451;52.496;13.456;2023-02-28T03:33:21;9.23;;;3.50;;
70078;SDS011;57451;52.496;13.456;2023-02-28T03:35:55;8.73;;;3.35;;
70078;SDS011;57451;52.496;13.456;2023-02-28T03:38:27;7.57;;;3.57;;
70078;SDS011;57451;52.496;13.456;2023-02-28T03:41:00;8.63;;;3.83;;
70078;SDS011;57451;52.496;13.456;2023-02-28T03:43:33;9.07;;;3.72;;
70078;SDS011;57451;52.496;13.456;2023-02-28T03:46:06;8.98;;;3.70;;
70078;SDS011;57451;52.496;13.456;2023-02-28T03:48:38;8.47;;;3.60;;
70078;SDS011;57451;52.496;13.456;2023-02-28T03:51:09;10.95;;;3.72;;
70078;SDS011;57451;52.496;13.456;2023-02-28T03:53:42;10.55;;;3.67;;
70078;SDS011;57451;52.496;13.456;2023-02-28T03:56:14;8.45;;;3.90;;
70078;SDS011;57451;52.496;13.456;2023-02-28T03:58:46;9.43;;;3.85;;
70078;SDS011;57451;52.496;13.456;2023-02-28T04:01:20;8.20;;;3.63;;
70078;SDS011;57451;52.496;13.456;2023-02-28T04:03:50;10.55;;;3.83;;
70078;SDS011;57451;52.496;13.456;2023-02-28T04:06:19;9.65;;;3.97;;
70078;SDS011;57451;52.496;13.456;2023-02-28T04:08:48;8.60;;;3.90;;
70078;SDS011;57451;52.496;13.456;2023-02-28T04:11:20;8.93;;;4.27;;
70078;SDS011;57451;52.496;13.456;2023-02-28T04:13:49;9.52;;;3.95;;
70078;SDS011;57451;52.496;13.456;2023-02-28T04:16:17;8.18;;;3.58;;
70078;SDS011;57451;52.496;13.456;2023-02-28T04:19:00;8.23;;;3.63;;
70078;SDS011;57451;52.496;13.456;2023-02-28T04:21:33;12.50;;;4.00;;
70078;SDS011;57451;52.496;13.456;2023-02-28T04:24:02;9.68;;;4.15;;
70078;SDS011;57451;52.496;13.456;2023-02-28T04:26:30;10.02;;;3.90;;
70078;SDS011;57451;52.496;13.456;2023-02-28T04:28:58;10.30;;;4.07;;
70078;SDS011;57451;52.496;13.456;2023-02-28T04:31:26;9.45;;;4.30;;
70078;SDS011;57451;52.496;13.456;2023-02-28T04:33:54;9.38;;;4.10;;
70078;SDS011;57451;52.496;13.456;2023-02-28T04:36:22;9.10;;;4.05;;
70078;SDS011;57451;52.496;13.456;2023-02-28T04:38:51;9.65;;;3.92;;
70078;SDS011;57451;52.496;13.456;2023-02-28T04:41:18;10.10;;;4.10;;
70078;SDS011;57451;52.496;13.456;2023-02-28T04:43:46;8.50;;;4.07;;
70078;SDS011;57451;52.496;13.456;2023-02-28T04:46:13;9.38;;;4.10;;
70078;SDS011;57451;52.496;13.456;2023-02-28T04:48:41;10.77;;;4.33;;
70078;SDS011;57451;52.496;13.456;2023-02-28T04:51:11;10.98;;;4.40;;
70078;SDS011;57451;52.496;13.456;2023-02-28T04:53:40;10.25;;;4.50;;
70078;SDS011;57451;52.496;13.456;2023-02-28T04:56:11;11.15;;;4.90;;
70078;SDS011;57451;52.496;13.456;2023-02-28T04:58:39;8.38;;;4.10;;
70078;SDS011;57451;52.496;13.456;2023-02-28T05:01:13;10.38;;;4.28;;
70078;SDS011;57451;52.496;13.456;2023-02-28T05:03:47;10.13;;;4.15;;
70078;SDS011;57451;52.496;13.456;2023-02-28T05:06:15;10.23;;;4.57;;
70078;SDS011;57451;52.496;13.456;2023-02-28T05:08:43;9.83;;;4.60;;
70078;SDS011;57451;52.496;13.456;2023-02-28T05:11:15;9.18;;;4.13;;
70078;SDS011;57451;52.496;13.456;2023-02-28T05:13:44;11.40;;;5.03;;
70078;SDS011;57451;52.496;13.456;2023-02-28T05:16:12;13.63;;;4.70;;
70078;SDS011;57451;52.496;13.456;2023-02-28T05:18:39;9.27;;;4.63;;
70078;SDS011;57451;52.496;13.456;2023-02-28T05:21:12;14.05;;;4.72;;
70078;SDS011;57451;52.496;13.456;2023-02-28T05:23:50;10.07;;;4.50;;
70078;SDS011;57451;52.496;13.456;2023-02-28T05:26:19;12.57;;;4.82;;
70078;SDS011;57451;52.496;13.456;2023-02-28T05:28:47;10.00;;;4.37;;
70078;SDS011;57451;52.496;13.456;2023-02-28T05:31:14;10.73;;;4.65;;
70078;SDS011;57451;52.496;13.456;2023-02-28T05:33:42;11.23;;;5.15;;
70078;SDS011;57451;52.496;13.456;2023-02-28T05:36:09;8.93;;;4.50;;
70078;SDS011;57451;52.496;13.456;2023-02-28T05:38:36;10.63;;;4.55;;
70078;SDS011;57451;52.496;13.456;2023-02-28T05:41:05;10.23;;;4.70;;
70078;SDS011;57451;52.496;13.456;2023-02-28T05:43:34;13.90;;;4.70;;
70078;SDS011;57451;52.496;13.456;2023-02-28T05:46:04;11.27;;;4.32;;
70078;SDS011;57451;52.496;13.456;2023-02-28T05:48:32;9.43;;;4.55;;
70078;SDS011;57451;52.496;13.456;2023-02-28T05:51:01;13.23;;;4.90;;
70078;SDS011;57451;52.496;13.456;2023-02-28T05:53:29;9.93;;;4.60;;
70078;SDS011;57451;52.496;13.456;2023-02-28T05:55:56;10.65;;;5.28;;
70078;SDS011;57451;52.496;13.456;2023-02-28T05:58:24;13.10;;;4.90;;
70078;SDS011;57451;52.496;13.456;2023-02-28T06:00:59;11.65;;;5.07;;
70078;SDS011;57451;52.496;13.456;2023-02-28T06:03:27;10.50;;;4.95;;
70078;SDS011;57451;52.496;13.456;2023-02-28T06:05:55;12.00;;;5.07;;
70078;SDS011;57451;52.496;13.456;2023-02-28T06:08:22;13.80;;;5.07;;
70078;SDS011;57451;52.496;13.456;2023-02-28T06:10:49;10.20;;;4.82;;
70078;SDS011;57451;52.496;13.456;2023-02-28T06:13:16;9.25;;;4.70;;
70078;SDS011;57451;52.496;13.456;2023-02-28T06:15:44;10.98;;;5.00;;
70078;SDS011;57451;52.496;13.456;2023-02-28T06:18:12;11.03;;;4.87;;
70078;SDS011;57451;52.496;13.456;2023-02-28T06:20:39;11.43;;;5.22;;
70078;SDS011;57451;52.496;13.456;2023-02-28T06:23:07;12.32;;;5.03;;
70078;SDS011;57451;52.496;13.456;2023-02-28T06:25:34;12.57;;;5.22;;
70078;SDS011;57451;52.496;13.456;2023-02-28T06:28:01;11.53;;;4.90;;
70078;SDS011;57451;52.496;13.456;2023-02-28T06:30:28;10.18;;;5.10;;
70078;SDS011;57451;52.496;13.456;2023-02-28T06:33:00;9.80;;;4.78;;
70078;SDS011;57451;52.496;13.456;2023-02-28T06:35:28;15.35;;;4.90;;
70078;SDS011;57451;52.496;13.456;2023-02-28T06:37:56;11.87;;;4.87;;
70078;SDS011;57451;52.496;13.456;2023-02-28T06:40:23;12.32;;;4.80;;
70078;SDS011;57451;52.496;13.456;2023-02-28T06:42:50;9.90;;;5.20;;
70078;SDS011;57451;52.496;13.456;2023-02-28T06:45:18;11.23;;;5.60;;
70078;SDS011;57451;52.496;13.456;2023-02-28T06:47:45;15.27;;;5.47;;
70078;SDS011;57451;52.496;13.456;2023-02-28T06:50:18;10.60;;;5.68;;
70078;SDS011;57451;52.496;13.456;2023-02-28T06:52:48;14.52;;;6.15;;
70078;SDS011;57451;52.496;13.456;2023-02-28T06:55:20;11.88;;;5.45;;
70078;SDS011;57451;52.496;13.456;2023-02-28T06:57:47;12.07;;;5.85;;
70078;SDS011;57451;52.496;13.456;2023-02-28T07:00:17;12.82;;;6.57;;
70078;SDS011;57451;52.496;13.456;2023-02-28T07:02:45;15.90;;;6.32;;
70078;SDS011;57451;52.496;13.456;2023-02-28T07:05:13;14.77;;;6.57;;
70078;SDS011;57451;52.496;13.456;2023-02-28T07:07:40;11.73;;;5.57;;
70078;SDS011;57451;52.496;13.456;2023-02-28T07:10:12;9.75;;;5.60;;
70078;SDS011;57451;52.496;13.456;2023-02-28T07:19:28;10.90;;;4.50;;
70078;SDS011;57451;52.496;13.456;2023-02-28T07:22:25;9.90;;;4.28;;
70078;SDS011;57451;52.496;13.456;2023-02-28T07:24:55;14.45;;;5.15;;
70078;SDS011;57451;52.496;13.456;2023-02-28T07:27:24;11.82;;;4.90;;
70078;SDS011;57451;52.496;13.456;2023-02-28T07:34:11;12.53;;;4.20;;
70078;SDS011;57451;52.496;13.456;2023-02-28T07:36:42;10.70;;;4.38;;
70078;SDS011;57451;52.496;13.456;2023-02-28T07:39:09;11.18;;;4.95;;
70078;SDS011;57451;52.496;13.456;2023-02-28T07:41:36;10.88;;;4.65;;
70078;SDS011;57451;52.496;13.456;2023-02-28T07:44:11;11.27;;;4.72;;
70078;SDS011;57451;52.496;13.456;2023-02-28T07:46:38;9.33;;;4.50;;
70078;SDS011;57451;52.496;13.456;2023-02-28T07:49:05;11.07;;;4.90;;
70078;SDS011;57451;52.496;13.456;2023-02-28T07:51:33;10.95;;;4.72;;
70078;SDS011;57451;52.496;13.456;2023-02-28T07:54:01;12.25;;;4.95;;
70078;SDS011;57451;52.496;13.456;2023-02-28T07:56:28;11.55;;;5.10;;
70078;SDS011;57451;52.496;13.456;2023-02-28T07:58:56;9.67;;;4.27;;
70078;SDS011;57451;52.496;13.456;2023-02-28T08:01:24;8.93;;;3.63;;
70078;SDS011;57451;52.496;13.456;2023-02-28T08:03:52;8.00;;;3.38;;
70078;SDS011;57451;52.496;13.456;2023-02-28T08:06:21;7.55;;;3.47;;
70078;SDS011;57451;52.496;13.456;2023-02-28T08:08:49;6.47;;;3.10;;
70078;SDS011;57451;52.496;13.456;2023-02-28T08:11:17;8.60;;;3.53;;
70078;SDS011;57451;52.496;13.456;2023-02-28T08:13:45;8.18;;;3.63;;
70078;SDS011;57451;52.496;13.456;2023-02-28T08:16:13;9.27;;;4.03;;
70078;SDS011;57451;52.496;13.456;2023-02-28T08:18:45;9.43;;;2.95;;
70078;SDS011;57451;52.496;13.456;2023-02-28T08:21:13;8.43;;;3.40;;
70078;SDS011;57451;52.496;13.456;2023-02-28T08:23:40;7.33;;;3.07;;
70078;SDS011;57451;52.496;13.456;2023-02-28T08:26:07;7.10;;;3.10;;
70078;SDS011;57451;52.496;13.456;2023-02-28T08:28:34;6.43;;;3.03;;
70078;SDS011;57451;52.496;13.456;2023-02-28T08:31:06;6.93;;;2.60;;
70078;SDS011;57451;52.496;13.456;2023-02-28T08:33:34;6.75;;;3.05;;
70078;SDS011;57451;52.496;13.456;2023-02-28T08:36:04;6.47;;;2.53;;
70078;SDS011;57451;52.496;13.456;2023-02-28T08:38:32;6.05;;;2.83;;
70078;SDS011;57451;52.496;13.456;2023-02-28T08:41:00;7.45;;;2.90;;
70078;SDS011;57451;52.496;13.456;2023-02-28T08:43:29;7.57;;;2.88;;
70078;SDS011;57451;52.496;13.456;2023-02-28T08:45:56;5.72;;;2.53;;
70078;SDS011;57451;52.496;13.456;2023-02-28T08:48:24;10.27;;;2.80;;
70078;SDS011;57451;52.496;13.456;2023-02-28T08:50:55;4.93;;;2.25;;
70078;SDS011;57451;52.496;13.456;2023-02-28T08:53:34;6.93;;;2.95;;
70078;SDS011;57451;52.496;13.456;2023-02-28T08:56:03;6.05;;;2.40;;
70078;SDS011;57451;52.496;13.456;2023-02-28T08:58:32;8.23;;;2.70;;
70078;SDS011;57451;52.496;13.456;2023-02-28T09:01:06;5.70;;;2.43;;
70078;SDS011;57451;52.496;13.456;2023-02-28T09:03:35;7.25;;;3.10;;
70078;SDS011;57451;52.496;13.456;2023-02-28T09:06:02;6.97;;;2.45;;
70078;SDS011;57451;52.496;13.456;2023-02-28T09:08:31;7.05;;;2.55;;
70078;SDS011;57451;52.496;13.456;2023-02-28T09:11:00;7.03;;;2.30;;
70078;SDS011;57451;52.496;13.456;2023-02-28T09:13:29;5.43;;;2.10;;
70078;SDS011;57451;52.496;13.456;2023-02-28T09:15:57;5.78;;;2.28;;
70078;SDS011;57451;52.496;13.456;2023-02-28T09:18:25;4.35;;;1.80;;
70078;SDS011;57451;52.496;13.456;2023-02-28T09:20:53;6.72;;;2.13;;
70078;SDS011;57451;52.496;13.456;2023-02-28T09:23:20;4.90;;;1.75;;
70078;SDS011;57451;52.496;13.456;2023-02-28T09:25:49;5.30;;;2.00;;
70078;SDS011;57451;52.496;13.456;2023-02-28T09:28:19;7.50;;;2.17;;
70078;SDS011;57451;52.496;13.456;2023-02-28T09:30:48;6.15;;;2.08;;
70078;SDS011;57451;52.496;13.456;2023-02-28T09:33:17;5.97;;;1.95;;
70078;SDS011;57451;52.496;13.456;2023-02-28T09:35:47;4.10;;;1.65;;
70078;SDS011;57451;52.496;13.456;2023-02-28T09:38:16;3.90;;;1.50;;
70078;SDS011;57451;52.496;13.456;2023-02-28T09:40:46;4.43;;;1.80;;
70078;SDS011;57451;52.496;13.456;2023-02-28T09:43:16;5.43;;;2.20;;
70078;SDS011;57451;52.496;13.456;2023-02-28T09:45:48;4.50;;;1.90;;
70078;SDS011;57451;52.496;13.456;2023-02-28T09:48:20;4.07;;;2.00;;
70078;SDS011;57451;52.496;13.456;2023-02-28T09:50:52;4.87;;;2.10;;
70078;SDS011;57451;52.496;13.456;2023-02-28T09:53:26;5.45;;;2.40;;
70078;SDS011;57451;52.496;13.456;2023-02-28T09:56:01;7.85;;;1.88;;
70078;SDS011;57451;52.496;13.456;2023-02-28T09:58:36;7.43;;;2.20;;
70078;SDS011;57451;52.496;13.456;2023-02-28T10:01:09;4.32;;;1.70;;
70078;SDS011;57451;52.496;13.456;2023-02-28T10:03:45;4.13;;;1.67;;
70078;SDS011;57451;52.496;13.456;2023-02-28T10:06:17;5.65;;;1.80;;
70078;SDS011;57451;52.496;13.456;2023-02-28T10:08:49;5.80;;;1.98;;
70078;SDS011;57451;52.496;13.456;2023-02-28T10:11:22;5.22;;;1.90;;
70078;SDS011;57451;52.496;13.456;2023-02-28T10:13:53;4.47;;;1.55;;
70078;SDS011;57451;52.496;13.456;2023-02-28T10:16:29;5.63;;;2.00;;
70078;SDS011;57451;52.496;13.456;2023-02-28T10:19:02;4.88;;;1.67;;
70078;SDS011;57451;52.496;13.456;2023-02-28T10:21:34;4.85;;;1.70;;
70078;SDS011;57451;52.496;13.456;2023-02-28T10:26:56;5.20;;;1.80;;
70078;SDS011;57451;52.496;13.456;2023-02-28T10:29:29;5.17;;;2.47;;
70078;SDS011;57451;52.496;13.456;2023-02-28T10:32:00;5.10;;;1.70;;
70078;SDS011;57451;52.496;13.456;2023-02-28T10:34:30;5.25;;;1.77;;
70078;SDS011;57451;52.496;13.456;2023-02-28T10:36:57;5.72;;;1.80;;
70078;SDS011;57451;52.496;13.456;2023-02-28T10:39:37;4.82;;;2.00;;
70078;SDS011;57451;52.496;13.456;2023-02-28T10:42:18;5.03;;;1.80;;
70078;SDS011;57451;52.496;13.456;2023-02-28T10:44:49;6.22;;;2.40;;
70078;SDS011;57451;52.496;13.456;2023-02-28T10:47:32;6.68;;;2.40;;
70078;SDS011;57451;52.496;13.456;2023-02-28T10:50:01;4.72;;;2.28;;
70078;SDS011;57451;52.496;13.456;2023-02-28T10:52:33;5.38;;;2.20;;
70078;SDS011;57451;52.496;13.456;2023-02-28T10:55:18;6.57;;;2.47;;
70078;SDS011;57451;52.496;13.456;2023-02-28T10:57:48;5.70;;;2.60;;
70078;SDS011;57451;52.496;13.456;2023-02-28T11:00:19;5.47;;;2.53;;
70078;SDS011;57451;52.496;13.456;2023-02-28T11:02:49;5.07;;;2.47;;
70078;SDS011;57451;52.496;13.456;2023-02-28T11:05:24;4.78;;;2.38;;
70078;SDS011;57451;52.496;13.456;2023-02-28T11:07:56;6.37;;;2.50;;
70078;SDS011;57451;52.496;13.456;2023-02-28T11:10:30;5.78;;;2.60;;
70078;SDS011;57451;52.496;13.456;2023-02-28T11:13:01;5.65;;;2.70;;
70078;SDS011;57451;52.496;13.456;2023-02-28T11:15:32;5.72;;;2.47;;
70078;SDS011;57451;52.496;13.456;2023-02-28T11:18:01;6.53;;;3.00;;
70078;SDS011;57451;52.496;13.456;2023-02-28T11:20:33;6.13;;;3.07;;
70078;SDS011;57451;52.496;13.456;2023-02-28T11:23:01;6.65;;;2.97;;
70078;SDS011;57451;52.496;13.456;2023-02-28T11:25:31;5.20;;;2.90;;
70078;SDS011;57451;52.496;13.456;2023-02-28T11:28:00;6.43;;;2.60;;
70078;SDS011;57451;52.496;13.456;2023-02-28T11:30:30;6.60;;;2.90;;
70078;SDS011;57451;52.496;13.456;2023-02-28T11:33:01;7.00;;;3.17;;
70078;SDS011;57451;52.496;13.456;2023-02-28T11:35:43;7.07;;;2.60;;
70078;SDS011;57451;52.496;13.456;2023-02-28T11:38:10;6.18;;;3.08;;
70078;SDS011;57451;52.496;13.456;2023-02-28T11:40:43;6.65;;;3.20;;
70078;SDS011;57451;52.496;13.456;2023-02-28T11:43:19;6.32;;;2.90;;
70078;SDS011;57451;52.496;13.456;2023-02-28T11:46:00;7.30;;;3.20;;
70078;SDS011;57451;52.496;13.456;2023-02-28T11:48:37;6.97;;;2.80;;
70078;SDS011;57451;52.496;13.456;2023-02-28T11:51:14;5.22;;;2.45;;
70078;SDS011;57451;52.496;13.456;2023-02-28T11:56:44;5.68;;;2.92;;
70078;SDS011;57451;52.496;13.456;2023-02-28T11:59:20;7.47;;;3.13;;
70078;SDS011;57451;52.496;13.456;2023-02-28T12:02:04;6.43;;;3.28;;
70078;SDS011;57451;52.496;13.456;2023-02-28T12:04:42;6.72;;;3.03;;
70078;SDS011;57451;52.496;13.456;2023-02-28T12:07:20;6.20;;;3.10;;
70078;SDS011;57451;52.496;13.456;2023-02-28T12:09:57;6.32;;;2.75;;
70078;SDS011;57451;52.496;13.456;2023-02-28T12:12:36;7.73;;;3.00;;
70078;SDS011;57451;52.496;13.456;2023-02-28T12:15:16;5.70;;;2.88;;
70078;SDS011;57451;52.496;13.456;2023-02-28T12:18:08;5.50;;;2.90;;
70078;SDS011;57451;52.496;13.456;2023-02-28T12:20:49;5.50;;;2.70;;
70078;SDS011;57451;52.496;13.456;2023-02-28T12:23:25;6.03;;;2.60;;
70078;SDS011;57451;52.496;13.456;2023-02-28T12:26:10;6.53;;;2.80;;
70078;SDS011;57451;52.496;13.456;2023-02-28T12:28:43;5.18;;;2.40;;
70078;SDS011;57451;52.496;13.456;2023-02-28T12:31:16;6.72;;;2.88;;
70078;SDS011;57451;52.496;13.456;2023-02-28T12:33:50;6.20;;;2.42;;
70078;SDS011;57451;52.496;13.456;2023-02-28T12:36:20;6.28;;;2.55;;
70078;SDS011;57451;52.496;13.456;2023-02-28T12:38:53;5.43;;;2.63;;
70078;SDS011;57451;52.496;13.456;2023-02-28T12:41:27;5.68;;;2.78;;
70078;SDS011;57451;52.496;13.456;2023-02-28T12:44:02;6.05;;;2.70;;
70078;SDS011;57451;52.496;13.456;2023-02-28T12:46:35;5.38;;;2.70;;
70078;SDS011;57451;52.496;13.456;2023-02-28T12:49:08;4.70;;;2.28;;
70078;SDS011;57451;52.496;13.456;2023-02-28T12:51:39;4.80;;;2.33;;
70078;SDS011;57451;52.496;13.456;2023-02-28T12:54:10;6.80;;;2.55;;
70078;SDS011;57451;52.496;13.456;2023-02-28T12:56:47;7.57;;;2.70;;
70078;SDS011;57451;52.496;13.456;2023-02-28T12:59:22;6.05;;;2.70;;
70078;SDS011;57451;52.496;13.456;2023-02-28T13:05:03;5.60;;;2.70;;
70078;SDS011;57451;52.496;13.456;2023-02-28T13:08:04;6.35;;;2.78;;
70078;SDS011;57451;52.496;13.456;2023-02-28T13:11:01;6.05;;;2.70;;
70078;SDS011;57451;52.496;13.456;2023-02-28T13:13:33;6.75;;;2.80;;
70078;SDS011;57451;52.496;13.456;2023-02-28T13:16:02;5.40;;;2.50;;
70078;SDS011;57451;52.496;13.456;2023-02-28T13:18:32;5.67;;;2.80;;
70078;SDS011;57451;52.496;13.456;2023-02-28T13:21:05;5.05;;;2.70;;
70078;SDS011;57451;52.496;13.456;2023-02-28T13:23:41;6.72;;;2.70;;
70078;SDS011;57451;52.496;13.456;2023-02-28T13:29:40;4.93;;;2.50;;
70078;SDS011;57451;52.496;13.456;2023-02-28T13:32:28;6.40;;;2.87;;
70078;SDS011;57451;52.496;13.456;2023-02-28T13:38:17;7.88;;;2.97;;
70078;SDS011;57451;52.496;13.456;2023-02-28T13:40:49;5.50;;;2.55;;
70078;SDS011;57451;52.496;13.456;2023-02-28T13:43:17;5.50;;;2.75;;
70078;SDS011;57451;52.496;13.456;2023-02-28T13:46:07;6.70;;;3.00;;
70078;SDS011;57451;52.496;13.456;2023-02-28T13:48:37;6.60;;;2.60;;
70078;SDS011;57451;52.496;13.456;2023-02-28T13:54:07;5.57;;;2.65;;
70078;SDS011;57451;52.496;13.456;2023-02-28T13:56:48;6.28;;;2.70;;
70078;SDS011;57451;52.496;13.456;2023-02-28T13:59:23;6.47;;;2.73;;
70078;SDS011;57451;52.496;13.456;2023-02-28T14:02:03;5.75;;;2.70;;
70078;SDS011;57451;52.496;13.456;2023-02-28T14:04:57;5.85;;;2.80;;
70078;SDS011;57451;52.496;13.456;2023-02-28T14:07:29;6.25;;;2.70;;
70078;SDS011;57451;52.496;13.456;2023-02-28T14:10:04;5.38;;;2.35;;
70078;SDS011;57451;52.496;13.456;2023-02-28T14:12:54;6.10;;;2.70;;
70078;SDS011;57451;52.496;13.456;2023-02-28T14:15:28;5.82;;;2.88;;
70078;SDS011;57451;52.496;13.456;2023-02-28T14:18:14;5.35;;;2.90;;
70078;SDS011;57451;52.496;13.456;2023-02-28T14:20:52;6.47;;;2.90;;
70078;SDS011;57451;52.496;13.456;2023-02-28T14:23:32;7.55;;;2.85;;
70078;SDS011;57451;52.496;13.456;2023-02-28T14:26:12;6.40;;;2.73;;
70078;SDS011;57451;52.496;13.456;2023-02-28T14:28:53;6.70;;;3.25;;
70078;SDS011;57451;52.496;13.456;2023-02-28T14:31:29;5.93;;;2.92;;
70078;SDS011;57451;52.496;13.456;2023-02-28T14:34:20;5.70;;;2.90;;
70078;SDS011;57451;52.496;13.456;2023-02-28T14:36:58;6.53;;;2.92;;
70078;SDS011;57451;52.496;13.456;2023-02-28T14:39:28;6.87;;;3.27;;
70078;SDS011;57451;52.496;13.456;2023-02-28T14:41:59;6.38;;;3.03;;
70078;SDS011;57451;52.496;13.456;2023-02-28T14:44:31;6.35;;;3.00;;
70078;SDS011;57451;52.496;13.456;2023-02-28T14:46:59;6.10;;;3.20;;
70078;SDS011;57451;52.496;13.456;2023-02-28T14:49:34;6.45;;;3.40;;
70078;SDS011;57451;52.496;13.456;2023-02-28T14:52:07;7.10;;;3.23;;
70078;SDS011;57451;52.496;13.456;2023-02-28T14:54:42;7.47;;;3.85;;
70078;SDS011;57451;52.496;13.456;2023-02-28T14:57:21;7.35;;;3.60;;
70078;SDS011;57451;52.496;13.456;2023-02-28T14:59:56;6.10;;;3.50;;
70078;SDS011;57451;52.496;13.456;2023-02-28T15:02:25;7.35;;;3.40;;
70078;SDS011;57451;52.496;13.456;2023-02-28T15:04:56;5.97;;;3.40;;
70078;SDS011;57451;52.496;13.456;2023-02-28T15:07:25;7.88;;;3.15;;
70078;SDS011;57451;52.496;13.456;2023-02-28T15:10:09;5.97;;;3.17;;
70078;SDS011;57451;52.496;13.456;2023-02-28T15:12:40;6.57;;;3.40;;
70078;SDS011;57451;52.496;13.456;2023-02-28T15:15:14;6.35;;;3.33;;
70078;SDS011;57451;52.496;13.456;2023-02-28T15:17:42;8.40;;;3.30;;
70078;SDS011;57451;52.496;13.456;2023-02-28T15:20:12;7.45;;;3.50;;
70078;SDS011;57451;52.496;13.456;2023-02-28T15:22:41;6.93;;;3.40;;
70078;SDS011;57451;52.496;13.456;2023-02-28T15:25:10;7.28;;;3.30;;
70078;SDS011;57451;52.496;13.456;2023-02-28T15:27:44;6.70;;;3.35;;
70078;SDS011;57451;52.496;13.456;2023-02-28T15:30:15;7.53;;;3.23;;
70078;SDS011;57451;52.496;13.456;2023-02-28T15:32:45;5.95;;;3.15;;